createdAt,value
2023-04-27T00:01:36.913Z,6.90
2023-04-27T00:04:07.468Z,6.90
2023-04-27T00:06:34.485Z,6.90
2023-04-27T00:09:01.653Z,6.80
2023-04-27T00:11:28.331Z,6.80
2023-04-27T00:13:54.930Z,6.80
2023-04-27T00:16:21.815Z,6.70
2023-04-27T00:18:48.846Z,6.70
2023-04-27T00:21:15.526Z,6.60
2023-04-27T00:23:42.263Z,6.50
2023-04-27T00:26:08.884Z,6.50
2023-04-27T00:28:35.691Z,6.50
2023-04-27T00:31:03.634Z,6.50
2023-04-27T00:33:30.431Z,6.40
2023-04-27T00:36:02.842Z,6.40
2023-04-27T00:38:30.779Z,6.40
2023-04-27T00:41:04.880Z,6.40
2023-04-27T00:43:32.470Z,6.40
2023-04-27T00:45:59.849Z,6.40
2023-04-27T00:48:26.815Z,6.40
2023-04-27T00:50:53.808Z,6.40
2023-04-27T00:53:20.734Z,6.40
2023-04-27T00:55:48.181Z,6.40
2023-04-27T00:58:15.238Z,6.30
2023-04-27T01:00:42.036Z,6.30
2023-04-27T01:03:09.534Z,6.20
2023-04-27T01:05:37.472Z,6.20
2023-04-27T01:08:04.713Z,6.20
2023-04-27T01:10:31.315Z,6.30
2023-04-27T01:12:58.102Z,6.20
2023-04-27T01:15:24.811Z,6.10
2023-04-27T01:18:01.844Z,6.10
2023-04-27T01:20:31.924Z,6.10
2023-04-27T01:22:59.077Z,6.10
2023-04-27T01:25:26.086Z,6.10
2023-04-27T01:27:54.123Z,6.10
2023-04-27T01:30:22.417Z,6.10
2023-04-27T01:32:50.000Z,6.10
2023-04-27T01:35:17.038Z,6.10
2023-04-27T01:37:43.762Z,6.20
2023-04-27T01:40:10.873Z,6.20
2023-04-27T01:42:38.254Z,6.20
2023-04-27T01:45:05.420Z,6.00
2023-04-27T01:47:32.116Z,6.00
2023-04-27T01:49:58.750Z,6.00
2023-04-27T01:52:25.955Z,5.90
2023-04-27T01:54:52.557Z,5.90
2023-04-27T01:57:19.530Z,5.90
2023-04-27T01:59:46.234Z,5.90
2023-04-27T02:02:12.863Z,5.90
2023-04-27T02:04:39.652Z,5.80
2023-04-27T02:07:06.656Z,5.80
2023-04-27T02:09:33.539Z,5.70
2023-04-27T02:12:00.449Z,5.70
2023-04-27T02:14:27.035Z,5.70
2023-04-27T02:16:53.674Z,5.60
2023-04-27T02:19:20.323Z,5.50
2023-04-27T02:21:47.167Z,5.40
2023-04-27T02:24:13.744Z,5.30
2023-04-27T02:26:40.683Z,5.20
2023-04-27T02:29:07.773Z,5.20
2023-04-27T02:31:35.346Z,5.10
2023-04-27T02:34:02.013Z,5.00
2023-04-27T02:38:56.342Z,5.00
2023-04-27T02:41:23.066Z,4.90
2023-04-27T02:43:51.475Z,4.90
2023-04-27T02:46:18.148Z,4.90
2023-04-27T02:48:44.911Z,4.80
2023-04-27T02:51:11.567Z,4.80
2023-04-27T02:53:38.137Z,4.80
2023-04-27T02:56:05.055Z,4.80
2023-04-27T02:58:31.880Z,4.70
2023-04-27T03:05:53.100Z,4.70
2023-04-27T03:08:19.748Z,4.60
2023-04-27T03:10:46.647Z,4.50
2023-04-27T03:13:14.977Z,4.50
2023-04-27T03:15:41.607Z,4.50
2023-04-27T03:18:08.309Z,4.50
2023-04-27T03:20:34.984Z,4.50
2023-04-27T03:23:02.063Z,4.50
2023-04-27T03:25:28.742Z,4.50
2023-04-27T03:27:55.389Z,4.50
2023-04-27T03:30:22.084Z,4.50
2023-04-27T03:32:48.808Z,4.60
2023-04-27T03:35:15.792Z,4.70
2023-04-27T03:37:42.498Z,4.60
2023-04-27T03:40:09.722Z,4.60
2023-04-27T03:42:36.329Z,4.60
2023-04-27T03:45:03.054Z,4.60
2023-04-27T03:47:29.728Z,4.60
2023-04-27T03:49:56.569Z,4.50
2023-04-27T03:52:23.248Z,4.60
2023-04-27T03:54:50.081Z,4.50
2023-04-27T03:57:16.689Z,4.60
2023-04-27T03:59:43.338Z,4.70
2023-04-27T04:02:11.515Z,4.70
2023-04-27T04:04:38.473Z,4.70
2023-04-27T04:07:05.733Z,4.80
2023-04-27T04:09:32.338Z,4.70
2023-04-27T04:11:58.969Z,4.80
2023-04-27T04:14:25.744Z,4.80
2023-04-27T04:16:52.344Z,4.80
2023-04-27T04:21:45.900Z,4.90
2023-04-27T04:24:13.468Z,5.00
2023-04-27T04:26:40.142Z,4.90
2023-04-27T04:29:07.570Z,4.90
2023-04-27T04:31:35.522Z,5.00
2023-04-27T04:34:02.303Z,5.00
2023-04-27T04:36:29.045Z,5.10
2023-04-27T04:38:57.172Z,5.20
2023-04-27T04:41:24.344Z,5.20
2023-04-27T04:43:51.033Z,5.30
2023-04-27T04:46:17.891Z,5.40
2023-04-27T04:48:44.754Z,5.40
2023-04-27T04:51:11.394Z,5.50
2023-04-27T04:53:38.117Z,5.50
2023-04-27T04:56:14.418Z,5.50
2023-04-27T04:58:41.148Z,5.60
2023-04-27T05:01:07.873Z,5.60
2023-04-27T05:03:34.829Z,5.70
2023-04-27T05:06:01.849Z,5.70
2023-04-27T05:08:28.526Z,5.80
2023-04-27T05:10:55.349Z,5.90
2023-04-27T05:13:22.504Z,6.00
2023-04-27T05:15:49.156Z,6.00
2023-04-27T05:18:16.005Z,6.00
2023-04-27T05:20:42.811Z,6.20
2023-04-27T05:23:09.559Z,6.30
2023-04-27T05:25:41.749Z,6.40
2023-04-27T05:28:09.749Z,6.40
2023-04-27T05:30:36.812Z,6.50
2023-04-27T05:33:04.187Z,6.60
2023-04-27T05:35:31.471Z,6.80
2023-04-27T05:37:58.353Z,6.80
2023-04-27T05:40:25.362Z,7.00
2023-04-27T05:42:52.079Z,7.00
2023-04-27T05:47:46.178Z,7.10
2023-04-27T05:50:12.904Z,7.40
2023-04-27T05:52:39.689Z,7.30
2023-04-27T05:55:08.023Z,7.40
2023-04-27T05:57:34.722Z,7.60
2023-04-27T06:00:01.764Z,7.60
2023-04-27T06:34:24.157Z,7.70
2023-04-27T06:36:50.815Z,8.80
2023-04-27T06:51:33.529Z,8.90
2023-04-27T06:54:00.383Z,9.40
2023-04-27T06:56:27.021Z,9.60
2023-04-27T06:58:53.625Z,9.70
2023-04-27T07:01:20.284Z,9.60
2023-04-27T07:03:47.182Z,9.80
2023-04-27T07:06:13.929Z,9.70
2023-04-27T07:08:40.823Z,9.90
2023-04-27T07:11:07.526Z,9.90
2023-04-27T07:13:34.209Z,10.00
2023-04-27T07:16:01.383Z,9.90
2023-04-27T07:18:28.271Z,10.00
2023-04-27T07:20:56.178Z,10.10
2023-04-27T07:23:22.773Z,10.30
2023-04-27T07:25:49.906Z,10.50
2023-04-27T07:28:16.578Z,10.50
2023-04-27T07:30:43.312Z,10.70
2023-04-27T07:33:10.096Z,10.70
2023-04-27T07:35:37.356Z,10.80
2023-04-27T07:38:03.959Z,10.80
2023-04-27T07:40:32.612Z,11.10
2023-04-27T07:42:59.845Z,11.00
2023-04-27T07:45:39.148Z,11.10
2023-04-27T07:48:06.111Z,11.20
2023-04-27T07:50:33.144Z,11.20
2023-04-27T07:53:00.401Z,11.30
2023-04-27T07:55:27.230Z,11.60
2023-04-27T07:57:54.704Z,11.80
2023-04-27T08:00:22.255Z,12.10
2023-04-27T08:02:49.504Z,12.20
2023-04-27T08:05:16.807Z,12.10
2023-04-27T08:07:44.846Z,12.10
2023-04-27T08:10:12.150Z,11.90
2023-04-27T08:12:38.787Z,12.00
2023-04-27T08:15:07.417Z,12.10
2023-04-27T08:27:25.400Z,12.10
2023-04-27T08:29:52.471Z,12.10
2023-04-27T08:32:19.053Z,12.10
2023-04-27T08:34:46.620Z,12.00
2023-04-27T08:37:13.451Z,11.90
2023-04-27T08:39:40.626Z,12.00
2023-04-27T08:42:11.936Z,12.10
2023-04-27T08:44:42.624Z,12.40
2023-04-27T08:47:09.926Z,12.40
2023-04-27T08:49:38.567Z,12.50
2023-04-27T08:52:14.866Z,12.50
2023-04-27T08:54:41.511Z,12.60
2023-04-27T08:57:15.667Z,12.80
2023-04-27T08:59:44.408Z,12.90
2023-04-27T09:02:21.412Z,12.90
2023-04-27T09:04:48.532Z,12.80
2023-04-27T09:07:17.636Z,13.00
2023-04-27T09:09:45.007Z,12.90
2023-04-27T09:12:19.489Z,13.10
2023-04-27T09:15:00.672Z,13.30
2023-04-27T09:17:28.745Z,13.30
2023-04-27T09:20:08.667Z,13.30
2023-04-27T09:22:57.617Z,13.40
2023-04-27T09:25:29.293Z,13.50
2023-04-27T09:27:57.951Z,13.30
2023-04-27T09:30:25.956Z,13.20
2023-04-27T09:33:02.425Z,13.70
2023-04-27T09:35:34.067Z,13.60
2023-04-27T09:38:01.490Z,13.60
2023-04-27T09:40:31.020Z,13.90
2023-04-27T09:43:01.501Z,14.00
2023-04-27T09:45:28.189Z,14.10
2023-04-27T09:47:55.103Z,13.80
2023-04-27T09:50:22.124Z,13.70
2023-04-27T09:52:49.069Z,13.70
2023-04-27T09:55:24.813Z,14.00
2023-04-27T09:58:19.050Z,14.20
2023-04-27T10:01:08.693Z,14.20
2023-04-27T10:03:56.688Z,14.30
2023-04-27T10:06:53.710Z,14.20
2023-04-27T10:09:23.644Z,14.10
2023-04-27T10:11:52.265Z,14.10
2023-04-27T10:14:21.437Z,14.20
2023-04-27T10:22:07.138Z,14.50
2023-04-27T10:24:44.221Z,14.80
2023-04-27T10:27:12.256Z,14.80
2023-04-27T10:29:43.682Z,14.90
2023-04-27T10:32:12.753Z,14.90
2023-04-27T10:34:40.524Z,15.00
2023-04-27T10:37:12.421Z,14.90
2023-04-27T10:39:48.539Z,15.10
2023-04-27T10:42:28.329Z,15.00
2023-04-27T10:45:06.246Z,14.80
2023-04-27T10:47:38.387Z,14.50
2023-04-27T10:50:07.325Z,14.70
2023-04-27T10:52:34.065Z,14.80
2023-04-27T10:55:21.130Z,14.70
2023-04-27T10:57:48.127Z,14.60
2023-04-27T11:00:18.891Z,14.80
2023-04-27T11:02:45.671Z,15.00
2023-04-27T11:05:30.290Z,15.40
2023-04-27T11:08:06.938Z,15.40
2023-04-27T11:10:35.653Z,15.70
2023-04-27T11:13:10.556Z,15.60
2023-04-27T11:15:51.276Z,15.70
2023-04-27T11:18:19.521Z,16.00
2023-04-27T11:20:49.305Z,16.00
2023-04-27T11:23:27.828Z,15.80
2023-04-27T11:25:56.004Z,15.80
2023-04-27T11:28:26.067Z,15.60
2023-04-27T11:30:56.826Z,15.60
2023-04-27T11:33:23.633Z,15.50
2023-04-27T11:35:50.260Z,15.50
2023-04-27T11:38:18.463Z,15.40
2023-04-27T11:40:46.747Z,15.50
2023-04-27T11:43:16.343Z,15.30
2023-04-27T11:45:44.979Z,15.30
2023-04-27T11:48:15.804Z,15.50
2023-04-27T11:50:50.387Z,15.50
2023-04-27T11:53:18.833Z,15.30
2023-04-27T11:55:52.365Z,15.20
2023-04-27T11:58:20.932Z,15.20
2023-04-27T12:00:47.581Z,15.30
2023-04-27T12:03:14.648Z,15.00
2023-04-27T12:05:49.901Z,15.10
2023-04-27T12:08:17.348Z,15.30
2023-04-27T12:10:44.481Z,15.70
2023-04-27T12:13:12.354Z,15.70
2023-04-27T12:15:39.234Z,15.40
2023-04-27T12:18:06.782Z,15.60
2023-04-27T14:16:51.232Z,16.10
2023-04-27T14:19:20.192Z,16.30
2023-04-27T14:21:49.100Z,16.20
2023-04-27T14:24:20.873Z,16.30
2023-04-27T14:26:48.770Z,16.10
2023-04-27T14:29:15.837Z,15.90
2023-04-27T14:31:43.277Z,16.10
2023-04-27T14:34:10.821Z,16.10
2023-04-27T14:36:37.628Z,15.60
2023-04-27T14:39:06.469Z,15.60
2023-04-27T14:41:33.075Z,15.50
2023-04-27T14:43:59.741Z,15.60
2023-04-27T14:46:26.465Z,15.90
2023-04-27T14:48:53.139Z,16.10
2023-04-27T14:51:20.012Z,16.00
2023-04-27T14:53:46.618Z,16.30
2023-04-27T14:56:13.307Z,16.40
2023-04-27T15:43:04.917Z,16.60
2023-04-27T15:45:31.988Z,17.20
2023-04-27T15:47:58.929Z,16.90
2023-04-27T15:50:25.938Z,17.00
2023-04-27T15:52:52.873Z,16.90
2023-04-27T15:55:19.624Z,16.90
2023-04-27T15:57:46.318Z,16.80
2023-04-27T16:00:15.650Z,17.00
2023-04-27T18:15:27.370Z,17.10
2023-04-27T18:27:45.118Z,14.30
2023-04-27T18:42:27.721Z,13.50
2023-04-27T18:45:00.660Z,13.10
2023-04-27T18:47:27.739Z,12.90
2023-04-27T19:21:53.429Z,11.90
2023-04-27T19:24:20.158Z,11.80
2023-04-27T19:26:47.630Z,11.80
2023-04-27T19:29:14.596Z,11.70
2023-04-27T19:31:41.699Z,11.60
2023-04-27T19:34:08.516Z,11.50
2023-04-27T19:36:35.107Z,11.50
2023-04-27T19:39:01.800Z,11.50
2023-04-27T19:41:28.365Z,11.40
2023-04-27T19:43:55.393Z,11.40
2023-04-27T19:46:22.073Z,11.40
2023-04-27T19:48:48.823Z,11.40
2023-04-27T19:51:15.683Z,11.40
2023-04-27T19:53:42.298Z,11.40
2023-04-27T19:56:08.894Z,11.40
2023-04-27T19:58:35.880Z,11.40
2023-04-27T20:01:03.793Z,11.40
2023-04-27T20:03:30.700Z,11.30
2023-04-27T20:05:57.722Z,11.30
2023-04-27T20:08:24.947Z,11.30
2023-04-27T20:10:51.596Z,11.20
2023-04-27T20:13:19.970Z,11.10
2023-04-27T20:15:46.758Z,11.10
2023-04-27T20:18:13.502Z,11.20
2023-04-27T20:20:41.895Z,11.10
2023-04-27T20:23:08.713Z,11.10
2023-04-27T20:25:35.452Z,11.10
2023-04-27T20:28:02.295Z,11.00
2023-04-27T21:41:46.174Z,11.00
2023-04-27T21:44:12.936Z,10.10
2023-04-27T21:46:39.695Z,10.10
2023-04-27T21:49:06.449Z,10.00
2023-04-27T21:51:34.489Z,10.10
2023-04-27T21:54:01.827Z,10.00
2023-04-27T21:56:28.787Z,10.00
2023-04-27T22:01:22.748Z,10.00
2023-04-27T22:03:50.215Z,9.90
2023-04-27T22:06:17.393Z,9.80
2023-04-27T22:08:44.059Z,9.80
2023-04-27T22:11:10.917Z,9.80
2023-04-27T22:13:37.589Z,9.80
2023-04-27T22:16:04.485Z,9.70
2023-04-27T22:18:31.243Z,9.70
2023-04-27T22:20:58.351Z,9.70
2023-04-27T22:23:25.231Z,9.70
2023-04-27T22:25:51.887Z,9.70
2023-04-27T22:33:13.337Z,9.60
2023-04-27T22:35:40.073Z,9.50
2023-04-27T22:38:07.362Z,9.60
2023-04-27T22:40:34.188Z,9.50
2023-04-27T22:43:01.163Z,9.60
2023-04-27T22:45:27.820Z,9.60
2023-04-27T22:47:54.593Z,9.50
2023-04-27T22:50:21.349Z,9.50
2023-04-27T22:52:48.200Z,9.50
2023-04-27T22:55:14.888Z,9.50
2023-04-27T22:57:41.909Z,9.50
2023-04-27T23:00:11.318Z,9.50
2023-04-27T23:02:39.591Z,9.50
2023-04-27T23:05:07.164Z,9.50
2023-04-27T23:07:34.240Z,9.50
2023-04-27T23:10:02.852Z,9.50
2023-04-27T23:12:30.216Z,9.50
2023-04-27T23:14:57.456Z,9.50
2023-04-27T23:17:30.335Z,9.50
2023-04-27T23:19:58.393Z,9.50
2023-04-27T23:22:25.752Z,9.40
2023-04-27T23:24:53.785Z,9.30
2023-04-27T23:27:21.371Z,9.30
2023-04-27T23:29:48.000Z,9.30
2023-04-27T23:32:14.687Z,9.30
2023-04-27T23:34:41.750Z,9.20
2023-04-27T23:37:08.632Z,9.20
2023-04-27T23:39:35.221Z,9.20
2023-04-27T23:42:01.859Z,9.20
2023-04-27T23:44:28.561Z,9.20
2023-04-27T23:46:55.279Z,9.10
2023-04-27T23:49:21.925Z,9.10
2023-04-27T23:51:49.932Z,9.10
2023-04-27T23:54:16.697Z,9.10
2023-04-27T23:56:43.483Z,9.10
2023-04-27T23:59:11.010Z,9.10
